Shelton, Idaho
Current Conditions -  °F | °C
As of 5:53 PM on Friday 24 Oct 2014 (Local Time) from KIDA Reporting Station
Clear Clear  
Wind Chill: 66°   Ceiling: Unl
Heat Index: 66°   Visibility: 10mi
Dew Point: 33°   Wind: 8mph
Humidity: 29%   Direction: 230°SW
Pressure: 30.09"   Gusts: NA
Location:  43.498°N, 111.73°W
Report Text: KIDA 242353Z 23007KT 10SM CLR 19/01 A3009 RMK AO2 SLP161 T01890006 10217 20161 56007
Loading
Personal Weather Stations






























Interactive Weather Map
Tropical Storm Tracking
New forecast layout! Learn more

10-Day Weather Forecast

Advertisements
Track Severe Weather on mobile